Accueil
Images satellite Prévisions 15 joursClimatMétéo marine Cyclones Foudre AéroportsFAQ Actualités A propos
Météo : Europe Afrique Amérique du Nord Amérique du Sud Asie Australie-Océanie Autres
Langues Contact

Bauru, São Paulo, Brésil

latitude: 22-19S, longitude: 049-04W, altitude: 590 m


METAR: SBBU 311400Z 01005G15KT 9999 FEW035 31/21 Q1014
TAF: absent

Heure: 12:44 (14:44 UTC)

Observation

Le bulletin a été fait il y a 44 minutes, à 14:00 UTC
Vent 5 kt de nord avec des rafales jusqu'à 15 kt
Température 31°C
Humidité 55%
Pression 1014 hPa
Visibilité 10 km ou plus
Quelques nuages à une hauteur de 3500 ft

Changer d'unités
Les informations qui figurent sur ce site font l'objet d'une clause de non-responsabilité
Météo : Europe Afrique Amérique du Nord Amérique du Sud Asie Australie-Océanie Autres
Images satellite Prévisions 15 joursClimatMétéo marine Cyclones Foudre AéroportsFAQ Langues Contact Actualités A propos